createdAt,value
2017-12-05T00:01:28.691Z,5.33
2017-12-05T00:03:56.234Z,3.57
2017-12-05T00:06:23.968Z,4.40
2017-12-05T00:08:51.520Z,4.33
2017-12-05T00:11:19.060Z,4.00
2017-12-05T00:13:46.625Z,3.93
2017-12-05T00:16:14.195Z,4.40
2017-12-05T00:18:41.723Z,4.40
2017-12-05T00:21:10.055Z,4.73
2017-12-05T00:23:37.606Z,4.63
2017-12-05T00:26:05.245Z,5.47
2017-12-05T00:28:33.182Z,4.10
2017-12-05T00:31:01.494Z,6.83
2017-12-05T00:33:29.091Z,5.23
2017-12-05T00:35:56.631Z,6.43
2017-12-05T00:38:24.210Z,4.93
2017-12-05T00:40:51.795Z,4.93
2017-12-05T00:43:19.316Z,5.33
2017-12-05T00:45:46.940Z,7.37
2017-12-05T00:48:14.548Z,7.90
2017-12-05T00:50:42.107Z,9.47
2017-12-05T00:53:09.630Z,8.80
2017-12-05T00:55:37.168Z,13.83
2017-12-05T00:58:04.733Z,11.40
2017-12-05T01:00:32.329Z,10.40
2017-12-05T01:03:00.095Z,11.30
2017-12-05T01:05:27.662Z,11.67
2017-12-05T01:07:55.191Z,11.13
2017-12-05T01:10:22.976Z,9.57
2017-12-05T01:12:50.516Z,15.20
2017-12-05T01:15:18.294Z,12.97
2017-12-05T01:17:45.855Z,13.87
2017-12-05T01:20:13.389Z,12.20
2017-12-05T01:22:41.012Z,12.87
2017-12-05T01:25:08.527Z,12.17
2017-12-05T01:27:36.092Z,11.97
2017-12-05T01:30:05.357Z,13.90
2017-12-05T01:32:33.713Z,21.67
2017-12-05T01:35:01.232Z,15.03
2017-12-05T01:37:28.822Z,13.07
2017-12-05T01:39:56.402Z,16.40
2017-12-05T01:42:23.962Z,12.67
2017-12-05T01:44:51.526Z,10.80
2017-12-05T01:47:19.073Z,12.40
2017-12-05T01:49:46.636Z,12.80
2017-12-05T01:52:14.216Z,12.90
2017-12-05T01:54:42.058Z,15.80
2017-12-05T01:57:09.628Z,13.67
2017-12-05T01:59:37.184Z,14.73
2017-12-05T02:02:04.798Z,15.97
2017-12-05T02:04:32.391Z,11.87
2017-12-05T02:06:59.956Z,13.60
2017-12-05T02:09:28.407Z,14.03
2017-12-05T02:11:55.976Z,13.77
2017-12-05T02:14:23.573Z,14.77
2017-12-05T02:16:51.181Z,16.23
2017-12-05T02:19:18.790Z,17.93
2017-12-05T02:21:47.096Z,15.70
2017-12-05T02:24:15.481Z,14.00
2017-12-05T02:26:43.042Z,15.73
2017-12-05T02:29:10.655Z,16.70
2017-12-05T02:31:38.176Z,15.60
2017-12-05T02:34:05.764Z,17.43
2017-12-05T02:36:33.604Z,13.93
2017-12-05T02:39:01.173Z,15.00
2017-12-05T02:41:28.733Z,12.80
2017-12-05T02:43:56.335Z,11.67
2017-12-05T02:46:23.900Z,15.70
2017-12-05T02:48:52.294Z,12.47
2017-12-05T02:51:19.883Z,12.80
2017-12-05T02:53:47.457Z,10.00
2017-12-05T02:56:15.369Z,12.80
2017-12-05T02:58:43.688Z,11.00
2017-12-05T03:01:11.275Z,11.20
2017-12-05T03:03:38.797Z,9.57
2017-12-05T03:06:06.354Z,8.73
2017-12-05T03:08:33.903Z,9.70
2017-12-05T03:11:01.502Z,7.77
2017-12-05T03:13:29.154Z,9.50
2017-12-05T03:15:57.014Z,6.50
2017-12-05T03:18:24.565Z,6.13
2017-12-05T03:20:52.111Z,7.20
2017-12-05T03:23:21.316Z,9.13
2017-12-05T03:25:49.648Z,8.00
2017-12-05T03:28:17.175Z,9.90
2017-12-05T03:30:44.739Z,7.30
2017-12-05T03:33:12.278Z,6.70
2017-12-05T03:35:40.567Z,7.43
2017-12-05T03:38:08.157Z,8.60
2017-12-05T03:40:35.704Z,8.00
2017-12-05T03:43:03.254Z,8.80
2017-12-05T03:45:30.846Z,7.03
2017-12-05T03:47:58.385Z,9.30
2017-12-05T03:50:25.912Z,7.33
2017-12-05T03:52:53.486Z,9.17
2017-12-05T03:55:21.233Z,9.43
2017-12-05T03:57:48.755Z,7.50
2017-12-05T04:00:16.347Z,8.00
2017-12-05T04:02:44.616Z,7.63
2017-12-05T04:05:12.904Z,10.00
2017-12-05T04:07:40.956Z,10.20
2017-12-05T04:10:09.263Z,9.10
2017-12-05T04:12:37.428Z,10.00
2017-12-05T04:15:05.813Z,13.43
2017-12-05T04:17:33.344Z,12.70
2017-12-05T04:20:01.767Z,11.50
2017-12-05T04:22:29.358Z,12.87
2017-12-05T04:24:56.939Z,11.80
2017-12-05T04:30:17.294Z,12.77
2017-12-05T04:32:44.891Z,18.63
2017-12-05T04:35:12.432Z,14.13
2017-12-05T04:37:39.992Z,13.80
2017-12-05T04:40:07.538Z,12.10
2017-12-05T04:42:35.072Z,11.97
2017-12-05T04:45:02.676Z,12.30
2017-12-05T04:47:30.241Z,16.03
2017-12-05T04:49:57.803Z,14.00
2017-12-05T04:52:25.386Z,13.30
2017-12-05T04:54:52.928Z,13.47
2017-12-05T04:57:20.526Z,12.50
2017-12-05T04:59:48.101Z,12.67
2017-12-05T05:02:16.282Z,13.87
2017-12-05T05:04:43.864Z,16.03
2017-12-05T05:07:11.698Z,11.20
2017-12-05T05:09:39.290Z,11.80
2017-12-05T05:12:06.904Z,10.00
2017-12-05T05:14:35.255Z,11.37
2017-12-05T05:17:02.786Z,11.13
2017-12-05T05:19:30.398Z,12.33
2017-12-05T05:21:57.942Z,12.20
2017-12-05T05:24:25.506Z,10.10
2017-12-05T05:26:53.117Z,10.80
2017-12-05T05:29:20.889Z,10.40
2017-12-05T05:31:49.246Z,10.33
2017-12-05T05:34:16.768Z,13.50
2017-12-05T05:36:44.276Z,10.93
2017-12-05T05:39:11.859Z,11.00
2017-12-05T05:41:39.413Z,17.17
2017-12-05T05:44:08.096Z,12.97
2017-12-05T05:46:36.443Z,13.27
2017-12-05T05:49:04.127Z,12.60
2017-12-05T05:51:31.666Z,10.83
2017-12-05T05:53:59.231Z,13.53
2017-12-05T05:56:26.805Z,13.30
2017-12-05T05:58:54.343Z,12.73
2017-12-05T06:01:21.920Z,12.13
2017-12-05T06:03:49.453Z,14.70
2017-12-05T06:06:17.810Z,13.70
2017-12-05T06:08:45.344Z,14.70
2017-12-05T06:11:12.906Z,13.77
2017-12-05T06:13:40.553Z,12.80
2017-12-05T06:16:08.105Z,14.63
2017-12-05T06:18:36.045Z,16.23
2017-12-05T06:21:03.655Z,12.90
2017-12-05T06:23:31.262Z,12.80
2017-12-05T06:25:58.795Z,12.87
2017-12-05T06:28:26.338Z,12.50
2017-12-05T06:30:54.688Z,15.00
2017-12-05T06:33:22.247Z,14.83
2017-12-05T06:35:50.211Z,14.83
2017-12-05T06:38:17.764Z,12.10
2017-12-05T06:40:45.707Z,13.40
2017-12-05T06:43:13.255Z,13.43
2017-12-05T06:45:40.842Z,13.60
2017-12-05T06:48:08.482Z,13.30
2017-12-05T06:50:36.056Z,11.70
2017-12-05T06:53:04.434Z,10.20
2017-12-05T06:55:32.066Z,10.60
2017-12-05T06:58:00.453Z,12.63
2017-12-05T07:00:28.036Z,11.53
2017-12-05T07:02:55.656Z,22.00
2017-12-05T07:05:23.238Z,12.47
2017-12-05T07:07:50.771Z,23.00
2017-12-05T07:10:18.467Z,14.80
2017-12-05T07:12:46.025Z,14.93
2017-12-05T07:15:14.373Z,16.70
2017-12-05T07:17:42.329Z,14.40
2017-12-05T07:20:09.916Z,12.93
2017-12-05T07:22:37.492Z,16.20
2017-12-05T07:25:06.256Z,17.53
2017-12-05T07:27:33.853Z,15.70
2017-12-05T07:30:01.428Z,17.90
2017-12-05T07:32:29.087Z,17.10
2017-12-05T07:34:56.641Z,20.20
2017-12-05T07:37:24.976Z,17.73
2017-12-05T07:39:52.579Z,15.77
2017-12-05T07:42:20.945Z,14.70
2017-12-05T07:44:49.277Z,22.63
2017-12-05T07:47:16.858Z,12.57
2017-12-05T07:49:44.465Z,11.60
2017-12-05T07:52:12.059Z,15.37
2017-12-05T07:54:39.630Z,16.23
2017-12-05T07:57:07.211Z,21.53
2017-12-05T07:59:34.774Z,16.83
2017-12-05T08:02:02.335Z,16.57
2017-12-05T08:04:29.915Z,12.13
2017-12-05T08:06:57.530Z,13.97
2017-12-05T08:09:25.129Z,12.27
2017-12-05T08:11:52.691Z,10.47
2017-12-05T08:14:20.304Z,13.67
2017-12-05T08:16:47.914Z,17.67
2017-12-05T08:19:15.548Z,13.63
2017-12-05T08:21:43.120Z,13.13
2017-12-05T08:24:11.458Z,13.57
2017-12-05T08:26:39.074Z,14.60
2017-12-05T08:29:06.724Z,13.17
2017-12-05T08:31:34.316Z,13.83
2017-12-05T08:34:01.881Z,10.30
2017-12-05T08:36:29.490Z,12.97
2017-12-05T08:38:57.826Z,13.30
2017-12-05T08:41:25.450Z,14.07
2017-12-05T08:43:53.820Z,18.13
2017-12-05T08:46:22.185Z,32.20
2017-12-05T08:48:49.753Z,14.33
2017-12-05T08:51:17.402Z,16.07
2017-12-05T08:53:44.960Z,23.27
2017-12-05T08:56:12.540Z,23.43
2017-12-05T08:58:40.947Z,26.40
2017-12-05T09:01:08.553Z,38.10
2017-12-05T09:03:36.110Z,27.50
2017-12-05T09:06:03.790Z,7.90
2017-12-05T09:08:31.956Z,19.37
2017-12-05T09:10:59.559Z,13.47
2017-12-05T09:13:27.119Z,15.37
2017-12-05T09:15:55.511Z,12.93
2017-12-05T09:18:23.071Z,15.63
2017-12-05T09:20:50.676Z,8.07
2017-12-05T09:23:18.266Z,12.57
2017-12-05T09:25:46.561Z,11.77
2017-12-05T09:28:14.926Z,8.27
2017-12-05T09:30:43.280Z,8.00
2017-12-05T09:33:10.888Z,6.60
2017-12-05T09:35:38.637Z,8.83
2017-12-05T09:38:06.799Z,6.47
2017-12-05T09:40:34.390Z,6.70
2017-12-05T09:43:01.949Z,5.80
2017-12-05T09:45:30.144Z,6.50
2017-12-05T09:47:58.485Z,6.17
2017-12-05T09:50:27.119Z,5.40
2017-12-05T09:52:54.685Z,7.10
2017-12-05T09:55:22.244Z,4.90
2017-12-05T09:57:50.109Z,7.63
2017-12-05T10:00:17.719Z,6.40
2017-12-05T10:02:45.296Z,4.83
2017-12-05T10:05:13.092Z,6.23
2017-12-05T10:07:40.654Z,5.30
2017-12-05T10:10:10.416Z,5.57
2017-12-05T10:12:38.029Z,6.00
2017-12-05T10:15:05.755Z,5.83
2017-12-05T10:17:33.382Z,8.13
2017-12-05T10:20:01.218Z,6.67
2017-12-05T10:22:28.790Z,4.83
2017-12-05T10:24:56.356Z,6.40
2017-12-05T10:27:23.976Z,6.40
2017-12-05T10:29:51.547Z,11.63
2017-12-05T10:32:19.143Z,4.60
2017-12-05T10:34:46.772Z,6.03
2017-12-05T10:37:14.373Z,5.80
2017-12-05T10:39:42.735Z,6.00
2017-12-05T10:42:10.341Z,5.20
2017-12-05T10:44:37.961Z,4.50
2017-12-05T10:47:06.464Z,6.80
2017-12-05T10:49:34.874Z,5.43
2017-12-05T10:52:02.490Z,5.27
2017-12-05T10:54:30.543Z,6.23
2017-12-05T10:56:58.171Z,5.93
2017-12-05T10:59:25.707Z,5.40
2017-12-05T11:01:54.060Z,5.80
2017-12-05T11:04:21.845Z,5.40
2017-12-05T11:06:50.191Z,5.30
2017-12-05T11:09:18.489Z,5.80
2017-12-05T11:11:46.949Z,6.30
2017-12-05T11:14:14.516Z,5.77
2017-12-05T11:16:42.058Z,6.70
2017-12-05T11:19:09.681Z,6.20
2017-12-05T11:21:37.223Z,5.97
2017-12-05T11:24:05.514Z,4.17
2017-12-05T11:26:33.831Z,4.93
2017-12-05T11:29:01.838Z,5.43
2017-12-05T11:31:29.443Z,6.27
2017-12-05T11:33:57.232Z,8.20
2017-12-05T11:36:24.876Z,4.33
2017-12-05T11:38:52.419Z,7.20
2017-12-05T11:41:20.218Z,4.97
2017-12-05T11:43:47.731Z,3.20
2017-12-05T11:46:15.269Z,5.00
2017-12-05T11:48:42.886Z,5.17
2017-12-05T11:51:10.500Z,4.90
2017-12-05T11:53:38.850Z,4.73
2017-12-05T11:56:06.415Z,3.40
2017-12-05T11:58:33.964Z,5.63
2017-12-05T12:01:01.586Z,4.10
2017-12-05T12:03:29.118Z,4.70
2017-12-05T12:05:56.706Z,4.50
2017-12-05T12:08:24.681Z,4.23
2017-12-05T12:10:52.186Z,5.60
2017-12-05T12:13:19.723Z,4.63
2017-12-05T12:15:47.328Z,11.87
2017-12-05T12:18:14.865Z,7.97
2017-12-05T12:20:43.168Z,25.90
2017-12-05T12:23:10.727Z,5.30
2017-12-05T12:25:38.279Z,24.53
2017-12-05T12:28:06.010Z,7.27
2017-12-05T12:30:33.543Z,11.80
2017-12-05T12:33:01.078Z,10.70
2017-12-05T12:35:28.894Z,8.67
2017-12-05T12:37:56.594Z,16.60
2017-12-05T12:40:24.212Z,9.40
2017-12-05T12:42:51.751Z,5.20
2017-12-05T12:45:19.364Z,11.90
2017-12-05T12:47:47.684Z,14.23
2017-12-05T12:50:15.280Z,8.77
2017-12-05T12:52:42.820Z,6.90
2017-12-05T12:55:10.382Z,5.37
2017-12-05T12:57:37.963Z,4.90
2017-12-05T13:00:05.513Z,5.60
2017-12-05T13:02:34.195Z,5.20
2017-12-05T13:05:01.760Z,5.50
2017-12-05T13:07:29.322Z,5.40
2017-12-05T13:09:56.852Z,7.07
2017-12-05T13:12:24.414Z,6.77
2017-12-05T13:14:52.225Z,17.83
2017-12-05T13:17:20.521Z,9.80
2017-12-05T13:19:48.856Z,5.87
2017-12-05T13:22:16.386Z,11.50
2017-12-05T13:24:43.992Z,13.33
2017-12-05T13:27:11.568Z,30.30
2017-12-05T13:29:39.908Z,6.90
2017-12-05T13:32:07.509Z,7.77
2017-12-05T13:34:35.108Z,7.40
2017-12-05T13:37:02.912Z,6.70
2017-12-05T13:39:30.716Z,6.70
2017-12-05T13:41:58.255Z,6.60
2017-12-05T13:44:25.820Z,7.47
2017-12-05T13:46:53.389Z,8.10
2017-12-05T13:49:21.449Z,7.03
2017-12-05T13:51:49.831Z,8.33
2017-12-05T13:54:17.375Z,21.73
2017-12-05T13:56:45.094Z,9.83
2017-12-05T13:59:12.631Z,8.53
2017-12-05T14:01:40.209Z,15.40
2017-12-05T14:04:08.195Z,8.23
2017-12-05T14:06:35.752Z,16.97
2017-12-05T14:09:03.345Z,12.83
2017-12-05T14:11:30.916Z,12.37
2017-12-05T14:13:58.501Z,14.93
2017-12-05T14:16:27.038Z,22.63
2017-12-05T14:18:58.591Z,11.20
2017-12-05T14:21:26.176Z,14.93
2017-12-05T14:23:53.718Z,32.17
2017-12-05T14:26:21.272Z,13.10
2017-12-05T14:28:50.414Z,14.87
2017-12-05T14:31:18.205Z,11.80
2017-12-05T14:33:45.855Z,10.93
2017-12-05T14:36:13.473Z,14.13
2017-12-05T14:38:41.018Z,13.37
2017-12-05T14:41:08.555Z,12.27
2017-12-05T14:43:36.136Z,10.07
2017-12-05T14:46:04.488Z,10.67
2017-12-05T14:48:32.052Z,16.67
2017-12-05T14:50:59.615Z,15.67
2017-12-05T14:53:27.207Z,13.90
2017-12-05T14:55:54.818Z,12.53
2017-12-05T14:58:22.377Z,14.27
2017-12-05T15:00:50.005Z,18.03
2017-12-05T15:03:19.948Z,19.53
2017-12-05T15:05:47.586Z,20.97
2017-12-05T15:08:15.169Z,21.80
2017-12-05T15:10:42.762Z,20.60
2017-12-05T15:13:10.352Z,20.13
2017-12-05T15:15:38.713Z,20.40
2017-12-05T15:18:07.776Z,15.40
2017-12-05T15:20:35.327Z,18.73
2017-12-05T15:23:02.990Z,14.63
2017-12-05T15:25:31.434Z,13.20
2017-12-05T15:27:59.010Z,13.83
2017-12-05T15:30:26.573Z,15.87
2017-12-05T15:32:54.401Z,12.53
2017-12-05T15:35:22.734Z,13.70
2017-12-05T15:37:50.321Z,15.47
2017-12-05T15:40:17.902Z,17.50
2017-12-05T15:42:45.478Z,14.20
2017-12-05T15:45:13.383Z,15.30
2017-12-05T15:47:40.941Z,24.37
2017-12-05T15:50:09.458Z,17.70
2017-12-05T15:52:37.878Z,20.40
2017-12-05T15:55:07.187Z,24.67
2017-12-05T15:57:35.991Z,16.50
2017-12-05T16:00:04.713Z,16.10
2017-12-05T16:02:33.191Z,16.67
2017-12-05T16:05:00.787Z,19.77
2017-12-05T16:07:29.228Z,19.43
2017-12-05T16:09:57.500Z,18.90
2017-12-05T16:12:25.344Z,21.13
2017-12-05T16:14:52.919Z,20.70
2017-12-05T16:17:20.541Z,20.73
2017-12-05T16:19:48.153Z,25.30
2017-12-05T16:22:15.767Z,21.50
2017-12-05T16:24:43.316Z,18.73
2017-12-05T16:27:10.884Z,16.27
2017-12-05T16:29:38.706Z,22.13
2017-12-05T16:32:06.475Z,20.20
2017-12-05T16:34:34.020Z,16.80
2017-12-05T16:37:01.693Z,22.20
2017-12-05T16:39:29.290Z,17.90
2017-12-05T16:41:56.910Z,19.00
2017-12-05T16:44:24.489Z,16.33
2017-12-05T16:46:52.048Z,15.80
2017-12-05T16:49:19.658Z,16.03
2017-12-05T16:51:47.219Z,25.90
2017-12-05T16:54:14.809Z,27.60
2017-12-05T16:56:42.364Z,19.20
2017-12-05T16:59:09.913Z,19.60
2017-12-05T17:01:37.693Z,16.93
2017-12-05T17:04:05.287Z,17.33
2017-12-05T17:06:33.112Z,20.77
2017-12-05T17:09:00.639Z,19.63
2017-12-05T17:11:28.246Z,18.50
2017-12-05T17:13:55.819Z,18.60
2017-12-05T17:16:23.414Z,17.33
2017-12-05T17:18:51.018Z,23.17
2017-12-05T17:21:18.618Z,21.90
2017-12-05T17:23:46.934Z,14.40
2017-12-05T17:26:14.541Z,19.03
2017-12-05T17:28:42.108Z,17.43
2017-12-05T17:31:09.685Z,21.83
2017-12-05T17:33:37.993Z,18.17
2017-12-05T17:36:05.574Z,16.17
2017-12-05T17:38:33.182Z,18.27
2017-12-05T17:41:00.747Z,20.10
2017-12-05T17:43:28.355Z,27.53
2017-12-05T17:45:55.954Z,28.97
2017-12-05T17:48:23.572Z,22.50
2017-12-05T17:50:51.242Z,18.03
2017-12-05T17:53:18.838Z,15.20
2017-12-05T17:55:46.437Z,17.37
2017-12-05T17:58:14.072Z,18.93
2017-12-05T18:00:42.421Z,18.97
2017-12-05T18:03:09.975Z,20.63
2017-12-05T18:05:37.632Z,14.57
2017-12-05T18:08:05.193Z,22.57
2017-12-05T18:10:32.805Z,18.30
2017-12-05T18:13:00.397Z,17.90
2017-12-05T18:15:27.985Z,21.50
2017-12-05T18:17:55.620Z,22.50
2017-12-05T18:20:23.227Z,19.60
2017-12-05T18:22:51.647Z,23.53
2017-12-05T18:25:19.293Z,25.13
2017-12-05T18:27:46.921Z,21.23
2017-12-05T18:30:14.517Z,26.63
2017-12-05T18:32:42.083Z,20.93
2017-12-05T18:35:10.466Z,26.67
2017-12-05T18:37:38.087Z,21.93
2017-12-05T18:40:05.711Z,22.83
2017-12-05T18:42:33.362Z,19.90
2017-12-05T18:45:00.962Z,23.10
2017-12-05T18:47:28.847Z,22.97
2017-12-05T18:49:57.227Z,21.00
2017-12-05T18:52:25.568Z,21.03
2017-12-05T18:54:53.191Z,18.67
2017-12-05T18:57:20.874Z,20.50
2017-12-05T18:59:48.460Z,21.27
2017-12-05T19:02:17.011Z,17.30
2017-12-05T19:04:44.888Z,20.57
2017-12-05T19:07:12.430Z,18.60
2017-12-05T19:09:40.041Z,24.20
2017-12-05T19:12:07.651Z,23.30
2017-12-05T19:14:35.247Z,16.30
2017-12-05T19:17:02.909Z,18.30
2017-12-05T19:19:31.562Z,22.40
2017-12-05T19:21:59.172Z,24.53
2017-12-05T19:24:26.869Z,19.33
2017-12-05T19:26:54.428Z,25.20
2017-12-05T19:29:23.812Z,20.80
2017-12-05T19:31:51.507Z,18.53
2017-12-05T19:34:19.232Z,17.50
2017-12-05T19:36:46.811Z,19.40
2017-12-05T19:39:15.210Z,20.07
2017-12-05T19:41:42.820Z,22.33
2017-12-05T19:44:10.473Z,22.50
2017-12-05T19:46:38.112Z,21.77
2017-12-05T19:49:05.749Z,18.80
2017-12-05T19:51:33.409Z,21.07
2017-12-05T19:54:01.010Z,24.67
2017-12-05T19:56:28.680Z,17.50
2017-12-05T19:58:56.328Z,20.00
2017-12-05T20:01:23.923Z,19.23
2017-12-05T20:03:52.331Z,18.20
2017-12-05T20:06:20.042Z,21.20
2017-12-05T20:08:47.705Z,19.80
2017-12-05T20:11:15.341Z,22.50
2017-12-05T20:13:42.956Z,20.60
2017-12-05T20:16:10.619Z,21.60
2017-12-05T20:18:38.198Z,18.00
2017-12-05T20:21:06.532Z,28.83
2017-12-05T20:23:34.539Z,19.53
2017-12-05T20:26:02.193Z,19.63
2017-12-05T20:28:30.574Z,17.73
2017-12-05T20:30:58.207Z,17.73
2017-12-05T20:33:25.881Z,16.43
2017-12-05T20:35:53.462Z,15.20
2017-12-05T20:38:21.989Z,15.80
2017-12-05T20:40:49.558Z,16.53
2017-12-05T20:43:17.911Z,17.97
2017-12-05T20:45:45.559Z,20.93
2017-12-05T20:48:13.190Z,20.57
2017-12-05T20:50:40.785Z,17.57
2017-12-05T20:53:08.458Z,18.60
2017-12-05T20:55:36.017Z,19.90
2017-12-05T20:58:03.632Z,22.87
2017-12-05T21:00:31.207Z,19.97
2017-12-05T21:02:58.768Z,23.20
2017-12-05T21:05:27.204Z,21.37
2017-12-05T21:07:54.790Z,24.57
2017-12-05T21:10:22.390Z,20.70
2017-12-05T21:12:49.971Z,20.90
2017-12-05T21:15:17.553Z,20.53
2017-12-05T21:17:45.136Z,19.57
2017-12-05T21:20:12.727Z,23.30
2017-12-05T21:22:40.441Z,26.93
2017-12-05T21:25:08.712Z,24.80
2017-12-05T21:27:36.292Z,20.17
2017-12-05T21:30:03.971Z,23.80
2017-12-05T21:32:31.559Z,21.40
2017-12-05T21:34:59.651Z,23.23
2017-12-05T21:37:27.256Z,20.47
2017-12-05T21:39:54.821Z,20.20
2017-12-05T21:42:23.235Z,23.80
2017-12-05T21:44:50.794Z,22.07
2017-12-05T21:47:18.339Z,21.93
2017-12-05T21:49:46.741Z,20.10
2017-12-05T21:52:14.312Z,20.73
2017-12-05T21:54:41.934Z,22.70
2017-12-05T21:57:09.521Z,17.13
2017-12-05T21:59:37.119Z,21.60
2017-12-05T22:02:04.704Z,18.57
2017-12-05T22:04:32.334Z,18.13
2017-12-05T22:06:59.926Z,20.70
2017-12-05T22:09:28.264Z,18.83
2017-12-05T22:11:55.806Z,15.77
2017-12-05T22:14:23.420Z,18.93
2017-12-05T22:16:50.966Z,20.97
2017-12-05T22:19:18.507Z,17.17
2017-12-05T22:21:46.824Z,16.93
2017-12-05T22:24:14.669Z,21.30
2017-12-05T22:26:42.225Z,19.50
2017-12-05T22:29:09.829Z,19.53
2017-12-05T22:31:37.365Z,17.33
2017-12-05T22:34:04.929Z,16.13
2017-12-05T22:36:32.837Z,19.17
2017-12-05T22:39:00.392Z,17.60
2017-12-05T22:41:27.957Z,20.10
2017-12-05T22:43:55.489Z,25.97
2017-12-05T22:46:23.031Z,19.90
2017-12-05T22:48:51.372Z,22.10
2017-12-05T22:51:18.955Z,19.30
2017-12-05T22:53:46.541Z,23.23
2017-12-05T22:56:14.887Z,21.10
2017-12-05T22:58:42.426Z,18.33
2017-12-05T23:01:10.222Z,18.13
2017-12-05T23:03:37.801Z,17.77
2017-12-05T23:06:06.142Z,20.43
2017-12-05T23:08:33.674Z,17.43
2017-12-05T23:11:01.209Z,19.80
2017-12-05T23:13:28.906Z,20.57
2017-12-05T23:15:56.555Z,17.57
2017-12-05T23:18:24.192Z,19.13
2017-12-05T23:20:51.722Z,17.93
2017-12-05T23:23:19.279Z,19.80
2017-12-05T23:25:46.857Z,16.47
2017-12-05T23:28:15.279Z,16.07
2017-12-05T23:30:42.831Z,15.60
2017-12-05T23:33:10.376Z,18.20
2017-12-05T23:35:37.941Z,17.33
2017-12-05T23:38:05.708Z,20.90
2017-12-05T23:40:33.263Z,16.17
2017-12-05T23:43:00.832Z,17.77
2017-12-05T23:45:28.451Z,17.07
2017-12-05T23:47:55.978Z,18.87
2017-12-05T23:50:23.504Z,19.10
2017-12-05T23:52:51.065Z,17.53
2017-12-05T23:55:18.661Z,19.23
2017-12-05T23:57:46.186Z,18.97
